sensor_id;sensor_type;location;lat;lon;timestamp;pressure;altitude;pressure_sealevel;temperature;humidity
39435;BME280;66825;51.880;-0.518;2023-03-25T00:00:17;98828.09;;;17.10;44.03
39435;BME280;66825;51.880;-0.518;2023-03-25T00:02:44;98828.44;;;17.09;43.89
39435;BME280;66825;51.880;-0.518;2023-03-25T00:05:11;98823.06;;;17.00;44.13
39435;BME280;66825;51.880;-0.518;2023-03-25T00:07:39;98822.53;;;17.07;44.10
39435;BME280;66825;51.880;-0.518;2023-03-25T00:10:06;98827.06;;;17.03;44.04
39435;BME280;66825;51.880;-0.518;2023-03-25T00:12:32;98818.19;;;16.93;43.97
39435;BME280;66825;51.880;-0.518;2023-03-25T00:14:57;98738.88;;;16.37;43.83
39435;BME280;66825;51.880;-0.518;2023-03-25T00:17:24;98839.50;;;17.04;43.72
39435;BME280;66825;51.880;-0.518;2023-03-25T00:19:57;98841.78;;;17.02;43.97
39435;BME280;66825;51.880;-0.518;2023-03-25T00:22:25;98742.38;;;16.37;44.03
39435;BME280;66825;51.880;-0.518;2023-03-25T00:24:51;98827.72;;;16.99;43.97
39435;BME280;66825;51.880;-0.518;2023-03-25T00:27:16;98828.06;;;16.98;44.09
39435;BME280;66825;51.880;-0.518;2023-03-25T00:29:43;98832.69;;;16.97;43.85
39435;BME280;66825;51.880;-0.518;2023-03-25T00:32:09;98833.81;;;16.96;43.74
39435;BME280;66825;51.880;-0.518;2023-03-25T00:34:35;98826.81;;;16.95;43.91
39435;BME280;66825;51.880;-0.518;2023-03-25T00:37:07;98831.44;;;16.95;43.74
39435;BME280;66825;51.880;-0.518;2023-03-25T00:39:34;98824.81;;;16.83;43.90
39435;BME280;66825;51.880;-0.518;2023-03-25T00:41:59;98808.25;;;16.76;43.97
39435;BME280;66825;51.880;-0.518;2023-03-25T00:44:27;98834.81;;;16.92;43.68
39435;BME280;66825;51.880;-0.518;2023-03-25T00:46:53;98804.28;;;16.74;43.95
39435;BME280;66825;51.880;-0.518;2023-03-25T00:49:18;98833.53;;;16.89;43.75
39435;BME280;66825;51.880;-0.518;2023-03-25T00:51:44;98835.47;;;16.89;43.96
39435;BME280;66825;51.880;-0.518;2023-03-25T00:54:10;98827.06;;;16.81;43.96
39435;BME280;66825;51.880;-0.518;2023-03-25T00:56:35;98822.09;;;16.83;43.71
39435;BME280;66825;51.880;-0.518;2023-03-25T00:59:01;98834.88;;;16.83;44.01
39435;BME280;66825;51.880;-0.518;2023-03-25T01:01:27;98835.34;;;16.85;43.92
39435;BME280;66825;51.880;-0.518;2023-03-25T01:03:55;98838.41;;;16.83;43.84
39435;BME280;66825;51.880;-0.518;2023-03-25T01:06:42;98826.72;;;16.83;43.83
39435;BME280;66825;51.880;-0.518;2023-03-25T01:09:13;98817.06;;;16.73;43.61
39435;BME280;66825;51.880;-0.518;2023-03-25T01:11:40;98807.84;;;16.65;43.63
39435;BME280;66825;51.880;-0.518;2023-03-25T01:14:11;98831.25;;;16.79;43.59
39435;BME280;66825;51.880;-0.518;2023-03-25T01:16:38;98832.03;;;16.79;43.72
39435;BME280;66825;51.880;-0.518;2023-03-25T01:19:03;98833.16;;;16.78;43.70
39435;BME280;66825;51.880;-0.518;2023-03-25T01:21:29;98830.78;;;16.77;43.72
39435;BME280;66825;51.880;-0.518;2023-03-25T01:23:58;98832.72;;;16.76;43.59
39435;BME280;66825;51.880;-0.518;2023-03-25T01:26:23;98828.41;;;16.75;43.81
39435;BME280;66825;51.880;-0.518;2023-03-25T01:28:49;98824.09;;;16.74;43.71
39435;BME280;66825;51.880;-0.518;2023-03-25T01:31:14;98829.53;;;16.74;43.72
39435;BME280;66825;51.880;-0.518;2023-03-25T01:33:40;98833.38;;;16.73;43.74
39435;BME280;66825;51.880;-0.518;2023-03-25T01:36:06;98831.78;;;16.72;43.46
39435;BME280;66825;51.880;-0.518;2023-03-25T01:38:34;98836.44;;;16.72;43.64
39435;BME280;66825;51.880;-0.518;2023-03-25T01:41:00;98757.69;;;16.20;43.48
39435;BME280;66825;51.880;-0.518;2023-03-25T01:43:26;98832.13;;;16.71;43.70
39435;BME280;66825;51.880;-0.518;2023-03-25T01:45:51;98811.31;;;16.54;43.63
39435;BME280;66825;51.880;-0.518;2023-03-25T01:48:23;98837.09;;;16.68;43.69
39435;BME280;66825;51.880;-0.518;2023-03-25T01:50:56;98833.59;;;16.68;43.61
39435;BME280;66825;51.880;-0.518;2023-03-25T01:53:27;98827.06;;;16.60;43.76
39435;BME280;66825;51.880;-0.518;2023-03-25T01:55:53;98827.53;;;16.62;43.72
39435;BME280;66825;51.880;-0.518;2023-03-25T01:58:21;98833.13;;;16.66;43.43
39435;BME280;66825;51.880;-0.518;2023-03-25T02:00:48;98807.22;;;16.47;43.59
39435;BME280;66825;51.880;-0.518;2023-03-25T02:03:16;98828.34;;;16.63;43.84
39435;BME280;66825;51.880;-0.518;2023-03-25T02:05:58;98809.13;;;16.47;43.67
39435;BME280;66825;51.880;-0.518;2023-03-25T02:08:27;98834.91;;;16.62;43.53
39435;BME280;66825;51.880;-0.518;2023-03-25T02:10:57;98827.06;;;16.60;43.64
39435;BME280;66825;51.880;-0.518;2023-03-25T02:13:23;98838.75;;;16.61;43.74
39435;BME280;66825;51.880;-0.518;2023-03-25T02:16:25;98836.38;;;16.59;43.61
39435;BME280;66825;51.880;-0.518;2023-03-25T02:19:05;98824.69;;;16.59;43.70
39435;BME280;66825;51.880;-0.518;2023-03-25T02:40:05;98839.63;;;16.52;43.81
39435;BME280;66825;51.880;-0.518;2023-03-25T02:45:21;98833.72;;;16.50;43.51
39435;BME280;66825;51.880;-0.518;2023-03-25T02:47:54;98824.16;;;16.44;43.50
39435;BME280;66825;51.880;-0.518;2023-03-25T02:50:45;98828.63;;;16.49;43.58
39435;BME280;66825;51.880;-0.518;2023-03-25T02:53:18;98835.19;;;16.48;43.47
39435;BME280;66825;51.880;-0.518;2023-03-25T02:55:46;98833.59;;;16.47;43.61
39435;BME280;66825;51.880;-0.518;2023-03-25T02:58:16;98842.84;;;16.46;43.65
39435;BME280;66825;51.880;-0.518;2023-03-25T03:00:43;98832.81;;;16.46;43.63
39435;BME280;66825;51.880;-0.518;2023-03-25T03:03:09;98821.44;;;16.44;43.55
39435;BME280;66825;51.880;-0.518;2023-03-25T03:05:41;98811.44;;;16.36;43.68
39435;BME280;66825;51.880;-0.518;2023-03-25T03:08:34;98734.09;;;15.82;43.75
39435;BME280;66825;51.880;-0.518;2023-03-25T03:25:08;98848.03;;;16.39;43.72
39435;BME280;66825;51.880;-0.518;2023-03-25T03:35:32;98836.03;;;16.18;43.52
39435;BME280;66825;51.880;-0.518;2023-03-25T03:38:02;98839.34;;;16.24;43.51
39435;BME280;66825;51.880;-0.518;2023-03-25T03:40:30;98832.50;;;16.18;43.51
39435;BME280;66825;51.880;-0.518;2023-03-25T03:45:55;98863.75;;;16.33;43.62
39435;BME280;66825;51.880;-0.518;2023-03-25T03:48:30;98855.59;;;16.33;43.55
39435;BME280;66825;51.880;-0.518;2023-03-25T03:51:30;98873.03;;;16.32;43.45
39435;BME280;66825;51.880;-0.518;2023-03-25T03:54:03;98863.28;;;16.31;43.49
39435;BME280;66825;51.880;-0.518;2023-03-25T03:56:34;98875.28;;;16.30;43.70
39435;BME280;66825;51.880;-0.518;2023-03-25T03:59:26;98869.84;;;16.30;43.55
39435;BME280;66825;51.880;-0.518;2023-03-25T04:02:03;98884.53;;;16.29;43.44
39435;BME280;66825;51.880;-0.518;2023-03-25T04:04:30;98892.69;;;16.29;43.75
39435;BME280;66825;51.880;-0.518;2023-03-25T04:07:14;98890.31;;;16.27;43.73
39435;BME280;66825;51.880;-0.518;2023-03-25T04:09:50;98899.25;;;16.28;43.78
39435;BME280;66825;51.880;-0.518;2023-03-25T04:12:25;98877.94;;;16.09;43.61
39435;BME280;66825;51.880;-0.518;2023-03-25T04:14:53;98898.81;;;16.26;43.77
39435;BME280;66825;51.880;-0.518;2023-03-25T04:17:20;98892.41;;;16.22;43.69
39435;BME280;66825;51.880;-0.518;2023-03-25T04:19:45;98794.44;;;15.58;43.56
39435;BME280;66825;51.880;-0.518;2023-03-25T04:22:16;98878.88;;;16.13;43.66
39435;BME280;66825;51.880;-0.518;2023-03-25T04:24:43;98914.63;;;16.24;43.80
39435;BME280;66825;51.880;-0.518;2023-03-25T04:27:08;98907.25;;;16.24;43.63
39435;BME280;66825;51.880;-0.518;2023-03-25T04:29:38;98902.16;;;16.23;43.75
39435;BME280;66825;51.880;-0.518;2023-03-25T04:32:05;98904.88;;;16.23;43.60
39435;BME280;66825;51.880;-0.518;2023-03-25T04:34:31;98906.00;;;16.22;43.81
39435;BME280;66825;51.880;-0.518;2023-03-25T04:36:56;98907.94;;;16.21;43.63
39435;BME280;66825;51.880;-0.518;2023-03-25T04:39:22;98918.00;;;16.20;43.75
39435;BME280;66825;51.880;-0.518;2023-03-25T04:41:49;98923.44;;;16.20;43.49
39435;BME280;66825;51.880;-0.518;2023-03-25T04:44:18;98906.19;;;16.16;43.67
39435;BME280;66825;51.880;-0.518;2023-03-25T04:46:46;98914.50;;;16.20;43.87
39435;BME280;66825;51.880;-0.518;2023-03-25T04:49:22;98925.69;;;16.18;43.65
39435;BME280;66825;51.880;-0.518;2023-03-25T04:51:48;98922.97;;;16.18;43.54
39435;BME280;66825;51.880;-0.518;2023-03-25T04:54:20;98922.03;;;16.14;43.67
39435;BME280;66825;51.880;-0.518;2023-03-25T04:56:49;98921.38;;;16.17;43.46
39435;BME280;66825;51.880;-0.518;2023-03-25T04:59:16;98925.22;;;16.16;43.53
39435;BME280;66825;51.880;-0.518;2023-03-25T05:01:43;98928.28;;;16.15;43.70
39435;BME280;66825;51.880;-0.518;2023-03-25T05:04:11;98924.41;;;16.16;43.50
39435;BME280;66825;51.880;-0.518;2023-03-25T05:06:43;98924.75;;;16.14;43.63
39435;BME280;66825;51.880;-0.518;2023-03-25T05:09:13;98934.00;;;16.13;43.58
39435;BME280;66825;51.880;-0.518;2023-03-25T05:11:40;98942.97;;;16.14;43.68
39435;BME280;66825;51.880;-0.518;2023-03-25T05:14:07;98943.47;;;16.07;43.55
39435;BME280;66825;51.880;-0.518;2023-03-25T05:16:32;98947.94;;;16.12;43.62
39435;BME280;66825;51.880;-0.518;2023-03-25T05:18:58;98937.94;;;15.95;43.71
39435;BME280;66825;51.880;-0.518;2023-03-25T05:21:23;98966.94;;;16.12;43.80
39435;BME280;66825;51.880;-0.518;2023-03-25T05:23:49;98970.00;;;16.10;43.68
39435;BME280;66825;51.880;-0.518;2023-03-25T05:26:15;98959.13;;;16.10;43.73
39435;BME280;66825;51.880;-0.518;2023-03-25T05:28:41;98960.09;;;16.06;43.54
39435;BME280;66825;51.880;-0.518;2023-03-25T05:31:06;98957.53;;;16.09;43.71
39435;BME280;66825;51.880;-0.518;2023-03-25T05:33:36;98964.09;;;16.08;43.72
39435;BME280;66825;51.880;-0.518;2023-03-25T05:38:33;98976.06;;;16.07;43.74
39435;BME280;66825;51.880;-0.518;2023-03-25T05:40:59;98969.84;;;16.07;43.50
39435;BME280;66825;51.880;-0.518;2023-03-25T05:43:24;98976.41;;;16.06;43.73
39435;BME280;66825;51.880;-0.518;2023-03-25T05:45:50;98959.72;;;15.86;43.59
39435;BME280;66825;51.880;-0.518;2023-03-25T05:48:15;98991.91;;;16.05;43.74
39435;BME280;66825;51.880;-0.518;2023-03-25T05:50:41;98980.09;;;16.01;43.87
39435;BME280;66825;51.880;-0.518;2023-03-25T05:53:11;98986.00;;;16.03;43.67
39435;BME280;66825;51.880;-0.518;2023-03-25T05:55:37;98991.44;;;16.03;43.75
39435;BME280;66825;51.880;-0.518;2023-03-25T05:58:03;98986.00;;;16.03;43.80
39435;BME280;66825;51.880;-0.518;2023-03-25T06:00:29;98996.06;;;16.02;43.75
39435;BME280;66825;51.880;-0.518;2023-03-25T06:02:54;98980.91;;;15.93;43.88
39435;BME280;66825;51.880;-0.518;2023-03-25T06:05:20;99011.91;;;16.00;43.73
39435;BME280;66825;51.880;-0.518;2023-03-25T06:07:48;99009.50;;;15.99;43.68
39435;BME280;66825;51.880;-0.518;2023-03-25T06:10:15;99002.47;;;15.98;43.83
39435;BME280;66825;51.880;-0.518;2023-03-25T06:12:45;98999.78;;;15.89;43.73
39435;BME280;66825;51.880;-0.518;2023-03-25T06:15:13;99019.91;;;15.97;43.79
39435;BME280;66825;51.880;-0.518;2023-03-25T06:17:39;98983.03;;;15.69;43.69
39435;BME280;66825;51.880;-0.518;2023-03-25T06:20:08;99024.19;;;15.98;43.71
39435;BME280;66825;51.880;-0.518;2023-03-25T06:22:41;99018.31;;;15.96;43.79
39435;BME280;66825;51.880;-0.518;2023-03-25T06:25:07;99027.25;;;15.96;43.89
39435;BME280;66825;51.880;-0.518;2023-03-25T06:27:33;99022.13;;;15.95;44.02
39435;BME280;66825;51.880;-0.518;2023-03-25T06:30:00;99021.19;;;15.91;43.77
39435;BME280;66825;51.880;-0.518;2023-03-25T06:32:26;99033.34;;;15.93;43.82
39435;BME280;66825;51.880;-0.518;2023-03-25T06:34:51;99034.44;;;15.92;43.99
39435;BME280;66825;51.880;-0.518;2023-03-25T06:37:17;99049.94;;;15.92;43.75
39435;BME280;66825;51.880;-0.518;2023-03-25T06:39:42;99056.47;;;15.91;43.68
39435;BME280;66825;51.880;-0.518;2023-03-25T06:42:14;99045.63;;;15.91;43.85
39435;BME280;66825;51.880;-0.518;2023-03-25T06:44:39;99048.66;;;15.89;43.95
39435;BME280;66825;51.880;-0.518;2023-03-25T06:47:05;99053.78;;;15.91;43.83
39435;BME280;66825;51.880;-0.518;2023-03-25T06:49:31;99039.72;;;15.88;43.90
39435;BME280;66825;51.880;-0.518;2023-03-25T06:51:56;99037.81;;;15.89;43.91
39435;BME280;66825;51.880;-0.518;2023-03-25T06:54:22;98954.03;;;15.26;43.89
39435;BME280;66825;51.880;-0.518;2023-03-25T06:56:48;99057.94;;;15.88;43.79
39435;BME280;66825;51.880;-0.518;2023-03-25T06:59:13;98962.97;;;15.27;44.07
39435;BME280;66825;51.880;-0.518;2023-03-25T07:01:39;99052.69;;;15.83;43.73
39435;BME280;66825;51.880;-0.518;2023-03-25T07:04:05;99060.19;;;15.86;43.85
39435;BME280;66825;51.880;-0.518;2023-03-25T07:06:31;99057.47;;;15.86;43.85
39435;BME280;66825;51.880;-0.518;2023-03-25T07:08:56;99059.38;;;15.85;43.91
39435;BME280;66825;51.880;-0.518;2023-03-25T07:11:27;99053.94;;;15.77;43.78
39435;BME280;66825;51.880;-0.518;2023-03-25T07:13:54;99064.31;;;15.83;43.85
39435;BME280;66825;51.880;-0.518;2023-03-25T07:16:20;99060.50;;;15.84;43.97
39435;BME280;66825;51.880;-0.518;2023-03-25T07:18:46;99060.81;;;15.83;43.98
39435;BME280;66825;51.880;-0.518;2023-03-25T07:21:12;99048.19;;;15.69;44.08
39435;BME280;66825;51.880;-0.518;2023-03-25T07:23:37;99072.78;;;15.82;43.83
39435;BME280;66825;51.880;-0.518;2023-03-25T07:26:03;99089.25;;;15.77;43.77
39435;BME280;66825;51.880;-0.518;2023-03-25T07:28:28;99085.56;;;15.81;43.80
39435;BME280;66825;51.880;-0.518;2023-03-25T07:30:54;99095.63;;;15.81;43.93
39435;BME280;66825;51.880;-0.518;2023-03-25T07:33:19;99097.06;;;15.78;44.03
39435;BME280;66825;51.880;-0.518;2023-03-25T07:35:45;99102.16;;;15.80;44.01
39435;BME280;66825;51.880;-0.518;2023-03-25T07:38:10;99102.16;;;15.80;44.09
39435;BME280;66825;51.880;-0.518;2023-03-25T07:40:36;99104.09;;;15.79;44.01
39435;BME280;66825;51.880;-0.518;2023-03-25T07:43:02;99098.50;;;15.67;44.05
39435;BME280;66825;51.880;-0.518;2023-03-25T07:45:28;98999.16;;;14.96;43.94
39435;BME280;66825;51.880;-0.518;2023-03-25T07:47:53;99104.72;;;15.67;44.11
39435;BME280;66825;51.880;-0.518;2023-03-25T07:50:21;99126.13;;;15.78;44.13
39435;BME280;66825;51.880;-0.518;2023-03-25T07:52:47;99085.53;;;15.46;44.18
39435;BME280;66825;51.880;-0.518;2023-03-25T07:55:13;99131.88;;;15.76;44.11
39435;BME280;66825;51.880;-0.518;2023-03-25T07:57:39;99140.34;;;15.75;44.16
39435;BME280;66825;51.880;-0.518;2023-03-25T08:00:07;99138.41;;;15.75;43.99
39435;BME280;66825;51.880;-0.518;2023-03-25T08:02:32;99135.69;;;15.75;44.20
39435;BME280;66825;51.880;-0.518;2023-03-25T08:04:58;99154.25;;;15.73;44.17
39435;BME280;66825;51.880;-0.518;2023-03-25T08:07:24;99154.25;;;15.73;44.14
39435;BME280;66825;51.880;-0.518;2023-03-25T08:09:49;99156.97;;;15.73;44.02
39435;BME280;66825;51.880;-0.518;2023-03-25T08:12:15;99158.88;;;15.72;44.42
39435;BME280;66825;51.880;-0.518;2023-03-25T08:14:40;99168.94;;;15.72;43.82
39435;BME280;66825;51.880;-0.518;2023-03-25T08:17:06;99168.94;;;15.72;44.08
39435;BME280;66825;51.880;-0.518;2023-03-25T08:19:32;99172.78;;;15.71;44.16
39435;BME280;66825;51.880;-0.518;2023-03-25T08:21:58;99171.97;;;15.70;44.17
39435;BME280;66825;51.880;-0.518;2023-03-25T08:24:23;99180.13;;;15.70;44.08
39435;BME280;66825;51.880;-0.518;2023-03-25T08:26:51;99166.06;;;15.60;44.02
39435;BME280;66825;51.880;-0.518;2023-03-25T08:29:18;99177.41;;;15.70;44.13
39435;BME280;66825;51.880;-0.518;2023-03-25T08:31:44;99189.38;;;15.69;44.29
39435;BME280;66825;51.880;-0.518;2023-03-25T08:34:17;99192.09;;;15.69;44.09
39435;BME280;66825;51.880;-0.518;2023-03-25T08:36:43;99192.41;;;15.68;44.07
39435;BME280;66825;51.880;-0.518;2023-03-25T08:39:08;99201.34;;;15.68;44.09
39435;BME280;66825;51.880;-0.518;2023-03-25T08:41:36;99203.25;;;15.68;44.18
39435;BME280;66825;51.880;-0.518;2023-03-25T08:44:06;99215.25;;;15.67;44.17
39435;BME280;66825;51.880;-0.518;2023-03-25T08:46:31;99194.16;;;15.55;44.07
39435;BME280;66825;51.880;-0.518;2023-03-25T08:48:57;99224.34;;;15.62;44.23
39435;BME280;66825;51.880;-0.518;2023-03-25T08:51:22;99221.00;;;15.65;44.29
39435;BME280;66825;51.880;-0.518;2023-03-25T08:53:48;99231.06;;;15.65;44.18
39435;BME280;66825;51.880;-0.518;2023-03-25T08:56:14;99238.53;;;15.59;44.20
39435;BME280;66825;51.880;-0.518;2023-03-25T08:58:39;99251.97;;;15.64;44.18
39435;BME280;66825;51.880;-0.518;2023-03-25T09:01:05;99248.13;;;15.56;44.12
39435;BME280;66825;51.880;-0.518;2023-03-25T09:03:31;99253.09;;;15.63;44.02
39435;BME280;66825;51.880;-0.518;2023-03-25T09:05:57;99258.53;;;15.63;44.30
39435;BME280;66825;51.880;-0.518;2023-03-25T09:08:23;99241.84;;;15.38;44.19
39435;BME280;66825;51.880;-0.518;2023-03-25T09:10:48;99276.72;;;15.63;44.36
39435;BME280;66825;51.880;-0.518;2023-03-25T09:13:14;99273.22;;;15.62;44.27
39435;BME280;66825;51.880;-0.518;2023-03-25T09:15:40;99284.09;;;15.62;44.16
39435;BME280;66825;51.880;-0.518;2023-03-25T09:18:05;99268.06;;;15.52;44.31
39435;BME280;66825;51.880;-0.518;2023-03-25T09:20:32;99253.38;;;15.44;44.30
39435;BME280;66825;51.880;-0.518;2023-03-25T09:22:57;99280.09;;;15.60;44.18
39435;BME280;66825;51.880;-0.518;2023-03-25T09:25:23;99173.06;;;14.94;44.32
39435;BME280;66825;51.880;-0.518;2023-03-25T09:27:49;99253.38;;;15.44;44.22
39435;BME280;66825;51.880;-0.518;2023-03-25T09:30:15;99276.22;;;15.52;44.21
39435;BME280;66825;51.880;-0.518;2023-03-25T09:32:40;99306.41;;;15.59;44.18
39435;BME280;66825;51.880;-0.518;2023-03-25T09:35:06;99298.09;;;15.55;44.21
39435;BME280;66825;51.880;-0.518;2023-03-25T09:37:32;99314.88;;;15.57;44.17
39435;BME280;66825;51.880;-0.518;2023-03-25T09:39:58;99313.28;;;15.56;44.33
39435;BME280;66825;51.880;-0.518;2023-03-25T09:47:31;99310.06;;;15.54;44.15
39435;BME280;66825;51.880;-0.518;2023-03-25T09:50:05;99324.47;;;15.55;44.19
39435;BME280;66825;51.880;-0.518;2023-03-25T09:52:41;99335.31;;;15.55;44.23
39435;BME280;66825;51.880;-0.518;2023-03-25T09:55:14;99330.19;;;15.53;44.03
39435;BME280;66825;51.880;-0.518;2023-03-25T09:57:45;99330.19;;;15.53;44.20
39435;BME280;66825;51.880;-0.518;2023-03-25T10:00:19;99339.47;;;15.52;44.20
39435;BME280;66825;51.880;-0.518;2023-03-25T10:03:33;99353.31;;;15.51;44.22
39435;BME280;66825;51.880;-0.518;2023-03-25T10:08:58;99353.78;;;15.44;44.08
39435;BME280;66825;51.880;-0.518;2023-03-25T10:11:36;99338.75;;;15.38;44.26
39435;BME280;66825;51.880;-0.518;2023-03-25T10:14:32;99365.00;;;15.51;44.30
39435;BME280;66825;51.880;-0.518;2023-03-25T10:19:54;99369.63;;;15.51;44.17
39435;BME280;66825;51.880;-0.518;2023-03-25T10:25:00;99374.25;;;15.50;44.35
39435;BME280;66825;51.880;-0.518;2023-03-25T10:27:36;99371.69;;;15.45;44.25
39435;BME280;66825;51.880;-0.518;2023-03-25T10:30:13;99360.22;;;15.25;43.90
39435;BME280;66825;51.880;-0.518;2023-03-25T10:32:48;99389.09;;;15.44;43.66
39435;BME280;66825;51.880;-0.518;2023-03-25T10:35:20;99399.44;;;15.42;43.53
39435;BME280;66825;51.880;-0.518;2023-03-25T10:37:48;99402.47;;;15.40;43.29
39435;BME280;66825;51.880;-0.518;2023-03-25T10:40:23;99400.38;;;15.37;43.21
39435;BME280;66825;51.880;-0.518;2023-03-25T10:45:28;99421.91;;;15.34;42.90
39435;BME280;66825;51.880;-0.518;2023-03-25T10:48:06;99416.28;;;15.30;42.04
39435;BME280;66825;51.880;-0.518;2023-03-25T10:50:36;99428.88;;;15.26;42.54
39435;BME280;66825;51.880;-0.518;2023-03-25T10:53:03;99442.75;;;15.24;42.55
39435;BME280;66825;51.880;-0.518;2023-03-25T10:55:32;99448.81;;;15.21;42.42
39435;BME280;66825;51.880;-0.518;2023-03-25T10:57:59;99444.47;;;15.20;42.49
39435;BME280;66825;51.880;-0.518;2023-03-25T11:00:26;99461.34;;;15.17;42.52
39435;BME280;66825;51.880;-0.518;2023-03-25T11:02:54;99439.72;;;15.03;42.65
39435;BME280;66825;51.880;-0.518;2023-03-25T11:05:23;99437.13;;;14.98;42.61
39435;BME280;66825;51.880;-0.518;2023-03-25T11:07:59;99462.59;;;15.11;42.31
39435;BME280;66825;51.880;-0.518;2023-03-25T11:10:31;99465.94;;;15.08;42.41
39435;BME280;66825;51.880;-0.518;2023-03-25T11:12:59;99468.94;;;15.06;42.45
39435;BME280;66825;51.880;-0.518;2023-03-25T11:15:30;99458.41;;;15.05;42.39
39435;BME280;66825;51.880;-0.518;2023-03-25T11:17:59;99450.19;;;14.96;42.38
39435;BME280;66825;51.880;-0.518;2023-03-25T11:20:34;99463.31;;;15.03;42.28
39435;BME280;66825;51.880;-0.518;2023-03-25T11:23:20;99439.06;;;14.84;42.15
39435;BME280;66825;51.880;-0.518;2023-03-25T11:25:48;99461.59;;;14.84;42.41
39435;BME280;66825;51.880;-0.518;2023-03-25T11:28:24;99471.59;;;14.98;42.23
39435;BME280;66825;51.880;-0.518;2023-03-25T11:31:26;99477.31;;;14.96;42.07
39435;BME280;66825;51.880;-0.518;2023-03-25T11:36:46;99459.78;;;14.80;42.17
39435;BME280;66825;51.880;-0.518;2023-03-25T11:39:28;99372.00;;;14.25;42.24
39435;BME280;66825;51.880;-0.518;2023-03-25T11:41:53;99480.94;;;14.91;42.43
39435;BME280;66825;51.880;-0.518;2023-03-25T11:44:26;99482.06;;;14.90;42.53
39435;BME280;66825;51.880;-0.518;2023-03-25T11:47:05;99489.41;;;14.90;42.32
39435;BME280;66825;51.880;-0.518;2023-03-25T11:49:37;99491.28;;;14.89;42.46
39435;BME280;66825;51.880;-0.518;2023-03-25T11:52:17;99454.66;;;14.64;42.51
39435;BME280;66825;51.880;-0.518;2023-03-25T11:54:45;99469.44;;;14.72;42.46
39435;BME280;66825;51.880;-0.518;2023-03-25T11:57:15;99498.13;;;14.87;42.58
39435;BME280;66825;51.880;-0.518;2023-03-25T11:59:45;99482.78;;;14.82;42.41
39435;BME280;66825;51.880;-0.518;2023-03-25T12:02:29;99503.88;;;14.85;42.67
39435;BME280;66825;51.880;-0.518;2023-03-25T12:07:46;99509.28;;;14.85;42.88
39435;BME280;66825;51.880;-0.518;2023-03-25T12:10:27;99507.38;;;14.86;42.78
39435;BME280;66825;51.880;-0.518;2023-03-25T12:13:06;99511.19;;;14.85;43.03
39435;BME280;66825;51.880;-0.518;2023-03-25T12:15:38;99512.28;;;14.84;43.06
39435;BME280;66825;51.880;-0.518;2023-03-25T12:31:40;99509.19;;;14.76;43.25
39435;BME280;66825;51.880;-0.518;2023-03-25T12:45:33;99537.72;;;14.88;43.49
39435;BME280;66825;51.880;-0.518;2023-03-25T12:56:18;99528.16;;;14.90;43.47
39435;BME280;66825;51.880;-0.518;2023-03-25T13:09:36;99510.16;;;14.95;43.61
39435;BME280;66825;51.880;-0.518;2023-03-25T13:12:09;99526.44;;;14.95;43.46
39435;BME280;66825;51.880;-0.518;2023-03-25T13:14:39;99527.25;;;14.95;43.49
39435;BME280;66825;51.880;-0.518;2023-03-25T13:17:15;99500.44;;;14.80;43.84
39435;BME280;66825;51.880;-0.518;2023-03-25T13:19:42;99511.69;;;14.87;43.74
39435;BME280;66825;51.880;-0.518;2023-03-25T13:22:23;99504.16;;;14.84;43.78
39435;BME280;66825;51.880;-0.518;2023-03-25T13:25:00;99532.03;;;14.98;43.48
39435;BME280;66825;51.880;-0.518;2023-03-25T13:27:38;99530.16;;;14.99;43.68
39435;BME280;66825;51.880;-0.518;2023-03-25T13:30:30;99546.44;;;14.99;43.64
39435;BME280;66825;51.880;-0.518;2023-03-25T13:32:56;99539.09;;;14.99;43.70
39435;BME280;66825;51.880;-0.518;2023-03-25T13:35:32;99544.50;;;14.99;43.56
39435;BME280;66825;51.880;-0.518;2023-03-25T13:38:03;99533.38;;;15.01;43.68
39435;BME280;66825;51.880;-0.518;2023-03-25T13:40:38;99544.22;;;15.01;43.56
39435;BME280;66825;51.880;-0.518;2023-03-25T13:43:29;99542.31;;;15.01;43.66
39435;BME280;66825;51.880;-0.518;2023-03-25T13:46:03;99539.91;;;15.00;43.62
39435;BME280;66825;51.880;-0.518;2023-03-25T13:48:59;99545.81;;;15.02;43.69
39435;BME280;66825;51.880;-0.518;2023-03-25T13:51:26;99540.38;;;15.02;43.70
39435;BME280;66825;51.880;-0.518;2023-03-25T13:54:00;99539.50;;;14.92;43.86
39435;BME280;66825;51.880;-0.518;2023-03-25T13:56:43;99563.69;;;15.03;43.71
39435;BME280;66825;51.880;-0.518;2023-03-25T14:13:16;99549.03;;;15.04;43.84
39435;BME280;66825;51.880;-0.518;2023-03-25T14:15:55;99537.38;;;15.03;43.69
39435;BME280;66825;51.880;-0.518;2023-03-25T14:18:23;99468.72;;;14.52;43.64
39435;BME280;66825;51.880;-0.518;2023-03-25T14:20:49;99540.38;;;15.02;43.58
39435;BME280;66825;51.880;-0.518;2023-03-25T14:23:17;99541.69;;;15.04;43.77
39435;BME280;66825;51.880;-0.518;2023-03-25T14:25:51;99538.16;;;15.04;43.77
39435;BME280;66825;51.880;-0.518;2023-03-25T14:28:20;99547.91;;;15.05;43.83
39435;BME280;66825;51.880;-0.518;2023-03-25T14:39:08;99543.13;;;14.88;43.80
39435;BME280;66825;51.880;-0.518;2023-03-25T14:44:22;99554.78;;;14.88;43.63
39435;BME280;66825;51.880;-0.518;2023-03-25T14:49:47;99584.47;;;15.07;43.91
39435;BME280;66825;51.880;-0.518;2023-03-25T14:55:08;99585.59;;;15.06;43.77
39435;BME280;66825;51.880;-0.518;2023-03-25T14:57:39;99579.06;;;15.07;43.82
39435;BME280;66825;51.880;-0.518;2023-03-25T15:00:06;99579.06;;;15.07;44.01
39435;BME280;66825;51.880;-0.518;2023-03-25T15:02:42;99555.28;;;14.90;43.92
39435;BME280;66825;51.880;-0.518;2023-03-25T15:05:16;99577.97;;;15.08;44.05
39435;BME280;66825;51.880;-0.518;2023-03-25T15:10:31;99572.94;;;15.02;44.04
39435;BME280;66825;51.880;-0.518;2023-03-25T15:15:53;99486.09;;;14.51;44.02
39435;BME280;66825;51.880;-0.518;2023-03-25T15:26:13;99594.75;;;15.11;44.13
39435;BME280;66825;51.880;-0.518;2023-03-25T15:28:47;99604.78;;;15.10;44.14
39435;BME280;66825;51.880;-0.518;2023-03-25T15:37:17;99600.66;;;15.13;44.37
39435;BME280;66825;51.880;-0.518;2023-03-25T15:56:01;99575.25;;;14.95;44.57
39435;BME280;66825;51.880;-0.518;2023-03-25T15:58:37;99607.69;;;15.14;44.87
39435;BME280;66825;51.880;-0.518;2023-03-25T16:01:19;99604.97;;;15.14;44.96
39435;BME280;66825;51.880;-0.518;2023-03-25T16:06:23;99620.16;;;15.15;44.89